sensor_id;sensor_type;location;lat;lon;timestamp;pressure;altitude;pressure_sealevel;temperature;humidity
80180;BME280;69505;52.134;5.438;2024-03-25T00:01:55;100955.19;;;3.23;100.00
80180;BME280;69505;52.134;5.438;2024-03-25T00:04:21;100954.47;;;3.20;100.00
80180;BME280;69505;52.134;5.438;2024-03-25T00:06:49;100959.81;;;3.17;100.00
80180;BME280;69505;52.134;5.438;2024-03-25T00:09:15;100959.19;;;3.12;100.00
80180;BME280;69505;52.134;5.438;2024-03-25T00:11:41;100952.22;;;3.11;100.00
80180;BME280;69505;52.134;5.438;2024-03-25T00:14:07;100953.00;;;3.13;100.00
80180;BME280;69505;52.134;5.438;2024-03-25T00:16:34;100950.47;;;3.11;100.00
80180;BME280;69505;52.134;5.438;2024-03-25T00:19:00;100957.69;;;3.06;100.00
80180;BME280;69505;52.134;5.438;2024-03-25T00:21:25;100959.66;;;3.01;100.00
80180;BME280;69505;52.134;5.438;2024-03-25T00:23:51;100952.78;;;2.98;100.00
80180;BME280;69505;52.134;5.438;2024-03-25T00:26:17;100954.69;;;2.95;100.00
80180;BME280;69505;52.134;5.438;2024-03-25T00:28:43;100956.53;;;2.93;100.00
80180;BME280;69505;52.134;5.438;2024-03-25T00:31:09;100950.16;;;2.98;100.00
80180;BME280;69505;52.134;5.438;2024-03-25T00:33:35;100946.03;;;2.93;100.00
80180;BME280;69505;52.134;5.438;2024-03-25T00:36:01;100947.97;;;2.88;100.00
80180;BME280;69505;52.134;5.438;2024-03-25T00:38:27;100933.97;;;2.89;100.00
80180;BME280;69505;52.134;5.438;2024-03-25T00:40:52;100940.19;;;2.86;100.00
80180;BME280;69505;52.134;5.438;2024-03-25T00:43:18;100943.72;;;2.85;100.00
80180;BME280;69505;52.134;5.438;2024-03-25T00:45:45;100951.00;;;2.78;100.00
80180;BME280;69505;52.134;5.438;2024-03-25T00:48:12;100951.94;;;2.77;100.00
80180;BME280;69505;52.134;5.438;2024-03-25T00:50:37;100942.09;;;2.82;100.00
80180;BME280;69505;52.134;5.438;2024-03-25T00:53:03;100940.41;;;2.81;100.00
80180;BME280;69505;52.134;5.438;2024-03-25T00:55:29;100941.31;;;2.80;100.00
80180;BME280;69505;52.134;5.438;2024-03-25T00:57:55;100944.84;;;2.79;100.00
80180;BME280;69505;52.134;5.438;2024-03-25T01:00:20;100946.69;;;2.77;100.00
80180;BME280;69505;52.134;5.438;2024-03-25T01:02:46;100949.38;;;2.76;100.00
80180;BME280;69505;52.134;5.438;2024-03-25T01:05:12;100948.69;;;2.71;100.00
80180;BME280;69505;52.134;5.438;2024-03-25T01:07:38;100958.69;;;2.62;100.00
80180;BME280;69505;52.134;5.438;2024-03-25T01:10:05;100958.84;;;2.58;100.00
80180;BME280;69505;52.134;5.438;2024-03-25T01:12:31;100958.06;;;2.56;100.00
80180;BME280;69505;52.134;5.438;2024-03-25T01:14:57;100958.22;;;2.53;100.00
80180;BME280;69505;52.134;5.438;2024-03-25T01:17:23;100951.13;;;2.55;100.00
80180;BME280;69505;52.134;5.438;2024-03-25T01:19:48;100951.25;;;2.52;100.00
80180;BME280;69505;52.134;5.438;2024-03-25T01:22:14;100958.41;;;2.48;100.00
80180;BME280;69505;52.134;5.438;2024-03-25T01:24:39;100961.19;;;2.43;100.00
80180;BME280;69505;52.134;5.438;2024-03-25T01:27:05;100962.25;;;2.39;100.00
80180;BME280;69505;52.134;5.438;2024-03-25T01:29:31;100959.63;;;2.39;100.00
80180;BME280;69505;52.134;5.438;2024-03-25T01:31:58;100961.34;;;2.40;100.00
80180;BME280;69505;52.134;5.438;2024-03-25T01:34:25;100971.94;;;2.37;100.00
80180;BME280;69505;52.134;5.438;2024-03-25T01:36:51;100958.13;;;2.34;100.00
80180;BME280;69505;52.134;5.438;2024-03-25T01:39:18;100967.81;;;2.32;100.00
80180;BME280;69505;52.134;5.438;2024-03-25T01:41:44;100974.81;;;2.31;100.00
80180;BME280;69505;52.134;5.438;2024-03-25T01:44:10;100968.09;;;2.24;100.00
80180;BME280;69505;52.134;5.438;2024-03-25T01:46:36;100966.41;;;2.23;100.00
80180;BME280;69505;52.134;5.438;2024-03-25T01:49:02;100963.72;;;2.24;100.00
80180;BME280;69505;52.134;5.438;2024-03-25T01:51:28;100961.22;;;2.21;100.00
80180;BME280;69505;52.134;5.438;2024-03-25T01:53:55;100972.69;;;2.19;100.00
80180;BME280;69505;52.134;5.438;2024-03-25T01:56:23;100963.09;;;2.18;100.00
80180;BME280;69505;52.134;5.438;2024-03-25T01:58:49;100964.94;;;2.16;100.00
80180;BME280;69505;52.134;5.438;2024-03-25T02:01:15;100965.91;;;2.13;100.00
80180;BME280;69505;52.134;5.438;2024-03-25T02:03:42;100965.06;;;2.13;100.00
80180;BME280;69505;52.134;5.438;2024-03-25T02:06:17;100971.16;;;2.13;100.00
80180;BME280;69505;52.134;5.438;2024-03-25T02:08:43;100979.31;;;2.06;100.00
80180;BME280;69505;52.134;5.438;2024-03-25T02:11:10;100975.84;;;2.05;100.00
80180;BME280;69505;52.134;5.438;2024-03-25T02:13:38;100964.47;;;2.06;100.00
80180;BME280;69505;52.134;5.438;2024-03-25T02:16:05;100965.31;;;2.07;100.00
80180;BME280;69505;52.134;5.438;2024-03-25T02:18:30;100972.78;;;2.16;100.00
80180;BME280;69505;52.134;5.438;2024-03-25T02:20:57;100971.09;;;2.15;100.00
80180;BME280;69505;52.134;5.438;2024-03-25T02:23:23;100968.34;;;2.18;100.00
80180;BME280;69505;52.134;5.438;2024-03-25T02:25:50;100968.34;;;2.18;100.00
80180;BME280;69505;52.134;5.438;2024-03-25T02:28:16;100973.59;;;2.18;100.00
80180;BME280;69505;52.134;5.438;2024-03-25T02:30:42;100969.13;;;2.20;100.00
80180;BME280;69505;52.134;5.438;2024-03-25T02:33:07;100967.31;;;2.22;100.00
80180;BME280;69505;52.134;5.438;2024-03-25T02:35:33;100975.06;;;2.25;100.00
80180;BME280;69505;52.134;5.438;2024-03-25T02:38:00;100976.91;;;2.23;100.00
80180;BME280;69505;52.134;5.438;2024-03-25T02:40:26;100973.59;;;2.18;100.00
80180;BME280;69505;52.134;5.438;2024-03-25T02:42:52;100970.13;;;2.17;100.00
80180;BME280;69505;52.134;5.438;2024-03-25T02:45:17;100972.59;;;2.20;100.00
80180;BME280;69505;52.134;5.438;2024-03-25T02:47:43;100968.25;;;2.21;100.00
80180;BME280;69505;52.134;5.438;2024-03-25T02:50:09;100969.22;;;2.18;100.00
80180;BME280;69505;52.134;5.438;2024-03-25T02:52:35;100970.78;;;2.22;100.00
80180;BME280;69505;52.134;5.438;2024-03-25T02:55:00;100966.53;;;2.20;100.00
80180;BME280;69505;52.134;5.438;2024-03-25T02:57:26;100969.13;;;2.20;100.00
80180;BME280;69505;52.134;5.438;2024-03-25T02:59:52;100967.63;;;2.14;100.00
80180;BME280;69505;52.134;5.438;2024-03-25T03:02:17;100963.44;;;2.10;100.00
80180;BME280;69505;52.134;5.438;2024-03-25T03:04:43;100948.75;;;2.06;100.00
80180;BME280;69505;52.134;5.438;2024-03-25T03:07:09;100958.44;;;2.04;100.00
80180;BME280;69505;52.134;5.438;2024-03-25T03:09:35;100955.97;;;1.99;100.00
80180;BME280;69505;52.134;5.438;2024-03-25T03:12:00;100957.03;;;1.95;100.00
80180;BME280;69505;52.134;5.438;2024-03-25T03:14:26;100956.97;;;1.97;100.00
80180;BME280;69505;52.134;5.438;2024-03-25T03:16:52;100953.50;;;1.96;100.00
80180;BME280;69505;52.134;5.438;2024-03-25T03:19:26;100961.34;;;1.96;100.00
80180;BME280;69505;52.134;5.438;2024-03-25T03:21:53;100963.22;;;1.93;100.00
80180;BME280;69505;52.134;5.438;2024-03-25T03:24:19;100965.84;;;1.93;100.00
80180;BME280;69505;52.134;5.438;2024-03-25T03:26:45;100959.81;;;1.91;100.00
80180;BME280;69505;52.134;5.438;2024-03-25T03:29:11;100959.91;;;1.89;100.00
80180;BME280;69505;52.134;5.438;2024-03-25T03:31:36;100948.72;;;1.84;100.00
80180;BME280;69505;52.134;5.438;2024-03-25T03:34:02;100947.31;;;1.75;100.00
80180;BME280;69505;52.134;5.438;2024-03-25T03:36:28;100950.00;;;1.74;100.00
80180;BME280;69505;52.134;5.438;2024-03-25T03:38:54;100943.03;;;1.74;100.00
80180;BME280;69505;52.134;5.438;2024-03-25T03:41:20;100941.47;;;1.69;100.00
80180;BME280;69505;52.134;5.438;2024-03-25T03:43:46;100948.81;;;1.59;100.00
80180;BME280;69505;52.134;5.438;2024-03-25T03:46:12;100945.59;;;1.52;100.00
80180;BME280;69505;52.134;5.438;2024-03-25T03:48:38;100944.97;;;1.46;100.00
80180;BME280;69505;52.134;5.438;2024-03-25T03:51:08;100950.28;;;1.42;100.00
80180;BME280;69505;52.134;5.438;2024-03-25T03:53:34;100948.78;;;1.37;100.00
80180;BME280;69505;52.134;5.438;2024-03-25T03:56:02;100941.97;;;1.33;100.00
80180;BME280;69505;52.134;5.438;2024-03-25T03:58:29;100939.56;;;1.27;100.00
80180;BME280;69505;52.134;5.438;2024-03-25T04:00:55;100939.88;;;1.17;100.00
80180;BME280;69505;52.134;5.438;2024-03-25T04:03:21;100930.22;;;1.19;100.00
80180;BME280;69505;52.134;5.438;2024-03-25T04:05:47;100918.91;;;1.19;100.00
80180;BME280;69505;52.134;5.438;2024-03-25T04:08:12;100920.69;;;1.18;100.00
80180;BME280;69505;52.134;5.438;2024-03-25T04:10:38;100924.31;;;1.14;100.00
80180;BME280;69505;52.134;5.438;2024-03-25T04:13:06;100924.59;;;1.07;100.00
80180;BME280;69505;52.134;5.438;2024-03-25T04:15:37;100923.06;;;1.01;100.00
80180;BME280;69505;52.134;5.438;2024-03-25T04:18:03;100927.59;;;0.96;100.00
80180;BME280;69505;52.134;5.438;2024-03-25T04:20:35;100931.00;;;0.98;100.00
80180;BME280;69505;52.134;5.438;2024-03-25T04:23:01;100934.59;;;0.95;100.00
80180;BME280;69505;52.134;5.438;2024-03-25T04:25:27;100940.91;;;0.88;100.00
80180;BME280;69505;52.134;5.438;2024-03-25T04:27:52;100942.00;;;0.83;100.00
80180;BME280;69505;52.134;5.438;2024-03-25T04:30:18;100940.28;;;0.81;100.00
80180;BME280;69505;52.134;5.438;2024-03-25T04:32:44;100945.63;;;0.78;100.00
80180;BME280;69505;52.134;5.438;2024-03-25T04:35:10;100939.66;;;0.75;100.00
80180;BME280;69505;52.134;5.438;2024-03-25T04:37:35;100937.16;;;0.72;100.00
80180;BME280;69505;52.134;5.438;2024-03-25T04:40:04;100939.88;;;0.69;100.00
80180;BME280;69505;52.134;5.438;2024-03-25T04:42:30;100946.91;;;0.67;100.00
80180;BME280;69505;52.134;5.438;2024-03-25T04:44:57;100946.00;;;0.68;100.00
80180;BME280;69505;52.134;5.438;2024-03-25T04:47:22;100934.00;;;0.62;100.00
80180;BME280;69505;52.134;5.438;2024-03-25T04:49:48;100939.25;;;0.60;100.00
80180;BME280;69505;52.134;5.438;2024-03-25T04:52:14;100939.34;;;0.59;100.00
80180;BME280;69505;52.134;5.438;2024-03-25T04:54:43;100938.63;;;0.54;100.00
80180;BME280;69505;52.134;5.438;2024-03-25T04:57:08;100939.56;;;0.53;100.00
80180;BME280;69505;52.134;5.438;2024-03-25T04:59:34;100939.75;;;0.47;100.00
80180;BME280;69505;52.134;5.438;2024-03-25T05:02:00;100933.72;;;0.45;100.00
80180;BME280;69505;52.134;5.438;2024-03-25T05:04:26;100948.59;;;0.43;100.00
80180;BME280;69505;52.134;5.438;2024-03-25T05:06:51;100944.25;;;0.42;100.00
80180;BME280;69505;52.134;5.438;2024-03-25T05:09:17;100950.41;;;0.40;100.00
80180;BME280;69505;52.134;5.438;2024-03-25T05:11:43;100945.97;;;0.43;100.00
80180;BME280;69505;52.134;5.438;2024-03-25T05:14:09;100949.69;;;0.35;100.00
80180;BME280;69505;52.134;5.438;2024-03-25T05:16:35;100951.44;;;0.35;100.00
80180;BME280;69505;52.134;5.438;2024-03-25T05:19:02;100957.53;;;0.35;100.00
80180;BME280;69505;52.134;5.438;2024-03-25T05:21:30;100961.06;;;0.34;100.00
80180;BME280;69505;52.134;5.438;2024-03-25T05:23:56;100962.84;;;0.32;100.00
80180;BME280;69505;52.134;5.438;2024-03-25T05:26:22;100963.75;;;0.31;100.00
80180;BME280;69505;52.134;5.438;2024-03-25T05:28:53;100973.19;;;0.35;100.00
80180;BME280;69505;52.134;5.438;2024-03-25T05:31:18;100972.53;;;0.29;100.00
80180;BME280;69505;52.134;5.438;2024-03-25T05:33:44;100971.56;;;0.31;100.00
80180;BME280;69505;52.134;5.438;2024-03-25T05:36:09;100979.41;;;0.31;100.00
80180;BME280;69505;52.134;5.438;2024-03-25T05:38:35;100975.00;;;0.33;100.00
80180;BME280;69505;52.134;5.438;2024-03-25T05:41:01;100971.34;;;0.39;100.00
80180;BME280;69505;52.134;5.438;2024-03-25T05:43:27;100973.94;;;0.39;100.00
80180;BME280;69505;52.134;5.438;2024-03-25T05:45:53;100974.81;;;0.39;100.00
80180;BME280;69505;52.134;5.438;2024-03-25T05:48:20;100968.78;;;0.37;100.00
80180;BME280;69505;52.134;5.438;2024-03-25T05:50:45;100967.78;;;0.42;100.00
80180;BME280;69505;52.134;5.438;2024-03-25T05:53:11;100972.91;;;0.45;100.00
80180;BME280;69505;52.134;5.438;2024-03-25T05:55:37;100966.06;;;0.40;100.00
80180;BME280;69505;52.134;5.438;2024-03-25T05:58:03;100969.56;;;0.39;100.00
80180;BME280;69505;52.134;5.438;2024-03-25T06:00:29;100967.78;;;0.42;100.00
80180;BME280;69505;52.134;5.438;2024-03-25T06:02:56;100965.88;;;0.47;100.00
80180;BME280;69505;52.134;5.438;2024-03-25T06:05:22;100966.59;;;0.50;100.00
80180;BME280;69505;52.134;5.438;2024-03-25T06:07:47;100968.13;;;0.57;100.00
80180;BME280;69505;52.134;5.438;2024-03-25T06:10:13;100965.31;;;0.64;100.00
80180;BME280;69505;52.134;5.438;2024-03-25T06:12:39;100958.19;;;0.67;100.00
80180;BME280;69505;52.134;5.438;2024-03-25T06:15:05;100965.00;;;0.73;100.00
80180;BME280;69505;52.134;5.438;2024-03-25T06:17:31;100958.00;;;0.73;100.00
80180;BME280;69505;52.134;5.438;2024-03-25T06:19:57;100957.06;;;0.76;100.00
80180;BME280;69505;52.134;5.438;2024-03-25T06:22:23;100958.66;;;0.80;100.00
80180;BME280;69505;52.134;5.438;2024-03-25T06:24:48;100955.03;;;0.84;100.00
80180;BME280;69505;52.134;5.438;2024-03-25T06:27:16;100957.28;;;0.95;100.00
80180;BME280;69505;52.134;5.438;2024-03-25T06:29:41;100956.41;;;0.94;100.00
80180;BME280;69505;52.134;5.438;2024-03-25T06:32:09;100948.50;;;0.96;100.00
80180;BME280;69505;52.134;5.438;2024-03-25T06:34:53;100943.06;;;1.02;100.00
80180;BME280;69505;52.134;5.438;2024-03-25T06:37:18;100950.84;;;1.04;100.00
80180;BME280;69505;52.134;5.438;2024-03-25T06:39:44;100939.44;;;1.06;100.00
80180;BME280;69505;52.134;5.438;2024-03-25T06:42:09;100938.28;;;1.13;100.00
80180;BME280;69505;52.134;5.438;2024-03-25T06:44:35;100949.50;;;1.17;100.00
80180;BME280;69505;52.134;5.438;2024-03-25T06:47:01;100947.63;;;1.20;100.00
80180;BME280;69505;52.134;5.438;2024-03-25T06:49:26;100951.84;;;1.25;100.00
80180;BME280;69505;52.134;5.438;2024-03-25T06:51:52;100941.97;;;1.33;100.00
80180;BME280;69505;52.134;5.438;2024-03-25T06:54:18;100945.88;;;1.45;100.00
80180;BME280;69505;52.134;5.438;2024-03-25T06:56:43;100943.09;;;1.49;100.00
80180;BME280;69505;52.134;5.438;2024-03-25T06:59:09;100948.19;;;1.52;100.00
80180;BME280;69505;52.134;5.438;2024-03-25T07:01:34;100950.31;;;1.66;100.00
80180;BME280;69505;52.134;5.438;2024-03-25T07:04:00;100945.94;;;1.89;100.00
80180;BME280;69505;52.134;5.438;2024-03-25T07:06:26;100947.97;;;2.04;100.00
80180;BME280;69505;52.134;5.438;2024-03-25T07:08:52;100947.22;;;2.00;100.00
80180;BME280;69505;52.134;5.438;2024-03-25T07:11:17;100951.53;;;2.01;100.00
80180;BME280;69505;52.134;5.438;2024-03-25T07:13:43;100955.69;;;2.07;100.00
80180;BME280;69505;52.134;5.438;2024-03-25T07:16:09;100951.00;;;2.15;100.00
80180;BME280;69505;52.134;5.438;2024-03-25T07:18:35;100947.34;;;2.19;100.00
80180;BME280;69505;52.134;5.438;2024-03-25T07:21:00;100951.94;;;2.35;100.00
80180;BME280;69505;52.134;5.438;2024-03-25T07:23:26;100954.41;;;2.60;100.00
80180;BME280;69505;52.134;5.438;2024-03-25T07:25:51;100949.16;;;2.60;100.00
80180;BME280;69505;52.134;5.438;2024-03-25T07:28:17;100954.88;;;2.70;100.00
80180;BME280;69505;52.134;5.438;2024-03-25T07:30:43;100944.97;;;2.76;100.00
80180;BME280;69505;52.134;5.438;2024-03-25T07:33:08;100950.53;;;2.89;100.00
80180;BME280;69505;52.134;5.438;2024-03-25T07:35:34;100951.91;;;2.98;100.00
80180;BME280;69505;52.134;5.438;2024-03-25T07:38:00;100943.78;;;3.04;100.00
80180;BME280;69505;52.134;5.438;2024-03-25T07:40:28;100952.03;;;3.15;100.00
80180;BME280;69505;52.134;5.438;2024-03-25T07:42:54;100943.91;;;3.21;100.00
80180;BME280;69505;52.134;5.438;2024-03-25T07:45:19;100945.47;;;3.25;100.00
80180;BME280;69505;52.134;5.438;2024-03-25T07:47:45;100946.72;;;3.36;100.00
80180;BME280;69505;52.134;5.438;2024-03-25T07:50:11;100942.25;;;3.38;100.00
80180;BME280;69505;52.134;5.438;2024-03-25T07:52:37;100949.31;;;3.56;100.00
80180;BME280;69505;52.134;5.438;2024-03-25T07:55:08;100950.81;;;3.62;100.00
80180;BME280;69505;52.134;5.438;2024-03-25T07:57:35;100952.16;;;3.71;100.00
80180;BME280;69505;52.134;5.438;2024-03-25T08:00:00;100949.06;;;3.80;100.00
80180;BME280;69505;52.134;5.438;2024-03-25T08:02:26;100949.06;;;3.99;100.00
80180;BME280;69505;52.134;5.438;2024-03-25T08:04:52;100949.34;;;4.12;100.00
80180;BME280;69505;52.134;5.438;2024-03-25T08:07:17;100952.44;;;4.20;100.00
80180;BME280;69505;52.134;5.438;2024-03-25T08:09:43;100959.09;;;4.27;100.00
80180;BME280;69505;52.134;5.438;2024-03-25T08:12:08;100958.50;;;4.39;100.00
80180;BME280;69505;52.134;5.438;2024-03-25T08:14:34;100960.75;;;4.47;100.00
80180;BME280;69505;52.134;5.438;2024-03-25T08:17:00;100962.00;;;4.57;100.00
80180;BME280;69505;52.134;5.438;2024-03-25T08:19:25;100963.59;;;4.60;100.00
80180;BME280;69505;52.134;5.438;2024-03-25T08:21:51;100959.69;;;4.68;100.00
80180;BME280;69505;52.134;5.438;2024-03-25T08:24:16;100960.28;;;4.74;100.00
80180;BME280;69505;52.134;5.438;2024-03-25T08:26:42;100962.69;;;4.78;100.00
80180;BME280;69505;52.134;5.438;2024-03-25T08:29:08;100964.56;;;4.94;100.00
80180;BME280;69505;52.134;5.438;2024-03-25T08:31:33;100961.06;;;5.11;100.00
80180;BME280;69505;52.134;5.438;2024-03-25T08:33:59;100960.19;;;5.43;100.00
80180;BME280;69505;52.134;5.438;2024-03-25T08:36:24;100959.13;;;5.63;100.00
80180;BME280;69505;52.134;5.438;2024-03-25T08:38:50;100964.91;;;5.70;100.00
80180;BME280;69505;52.134;5.438;2024-03-25T08:41:16;100964.72;;;5.89;100.00
80180;BME280;69505;52.134;5.438;2024-03-25T08:43:41;100960.09;;;6.10;100.00
80180;BME280;69505;52.134;5.438;2024-03-25T08:46:07;100961.06;;;6.39;100.00
80180;BME280;69505;52.134;5.438;2024-03-25T08:48:33;100959.94;;;6.43;100.00
80180;BME280;69505;52.134;5.438;2024-03-25T08:50:58;100955.56;;;6.58;100.00
80180;BME280;69505;52.134;5.438;2024-03-25T08:53:24;100950.91;;;6.78;100.00
80180;BME280;69505;52.134;5.438;2024-03-25T08:55:49;100946.13;;;6.99;100.00
80180;BME280;69505;52.134;5.438;2024-03-25T08:58:15;100951.03;;;7.05;100.00
80180;BME280;69505;52.134;5.438;2024-03-25T09:00:42;100955.78;;;7.14;100.00
80180;BME280;69505;52.134;5.438;2024-03-25T09:03:08;100949.16;;;7.36;100.00
80180;BME280;69505;52.134;5.438;2024-03-25T09:05:36;100938.06;;;8.81;100.00
80180;BME280;69505;52.134;5.438;2024-03-25T09:08:07;100933.25;;;11.06;100.00
80180;BME280;69505;52.134;5.438;2024-03-25T09:10:35;100926.00;;;11.42;91.68
80180;BME280;69505;52.134;5.438;2024-03-25T09:13:19;100924.31;;;11.18;88.26
80180;BME280;69505;52.134;5.438;2024-03-25T09:15:45;100935.47;;;10.30;92.36
80180;BME280;69505;52.134;5.438;2024-03-25T09:18:11;100925.06;;;11.09;90.31
80180;BME280;69505;52.134;5.438;2024-03-25T09:20:36;100921.09;;;12.03;85.52
80180;BME280;69505;52.134;5.438;2024-03-25T09:23:02;100924.66;;;11.02;87.89
80180;BME280;69505;52.134;5.438;2024-03-25T09:25:27;100935.38;;;10.19;90.44
80180;BME280;69505;52.134;5.438;2024-03-25T09:27:53;100942.53;;;10.05;90.74
80180;BME280;69505;52.134;5.438;2024-03-25T09:30:19;100939.84;;;9.94;92.25
80180;BME280;69505;52.134;5.438;2024-03-25T09:32:45;100926.16;;;9.38;89.95
80180;BME280;69505;52.134;5.438;2024-03-25T09:35:11;100938.81;;;9.08;95.81
80180;BME280;69505;52.134;5.438;2024-03-25T09:37:37;100930.16;;;9.93;96.42
80180;BME280;69505;52.134;5.438;2024-03-25T09:40:03;100930.84;;;11.03;88.47
80180;BME280;69505;52.134;5.438;2024-03-25T09:42:49;100935.28;;;10.44;88.43
80180;BME280;69505;52.134;5.438;2024-03-25T09:45:18;100927.16;;;9.73;92.78
80180;BME280;69505;52.134;5.438;2024-03-25T09:47:47;100930.22;;;9.80;93.22
80180;BME280;69505;52.134;5.438;2024-03-25T09:50:14;100927.13;;;10.10;93.82
80180;BME280;69505;52.134;5.438;2024-03-25T09:52:48;100923.84;;;12.24;87.69
80180;BME280;69505;52.134;5.438;2024-03-25T09:55:14;100916.66;;;12.78;84.56
80180;BME280;69505;52.134;5.438;2024-03-25T09:57:42;100912.63;;;12.63;81.27
80180;BME280;69505;52.134;5.438;2024-03-25T10:00:09;100911.97;;;12.49;78.29
80180;BME280;69505;52.134;5.438;2024-03-25T10:02:37;100910.16;;;12.71;77.99
80180;BME280;69505;52.134;5.438;2024-03-25T10:05:05;100910.72;;;12.00;77.83
80180;BME280;69505;52.134;5.438;2024-03-25T10:07:30;100893.13;;;11.31;79.33
80180;BME280;69505;52.134;5.438;2024-03-25T10:09:56;100888.94;;;11.17;83.60
80180;BME280;69505;52.134;5.438;2024-03-25T10:12:26;100880.94;;;10.95;84.84
80180;BME280;69505;52.134;5.438;2024-03-25T10:14:52;100888.84;;;10.61;86.78
80180;BME280;69505;52.134;5.438;2024-03-25T10:17:17;100892.78;;;10.44;87.79
80180;BME280;69505;52.134;5.438;2024-03-25T10:19:43;100887.88;;;10.27;87.90
80180;BME280;69505;52.134;5.438;2024-03-25T10:22:09;100892.53;;;10.36;88.14
80180;BME280;69505;52.134;5.438;2024-03-25T10:24:38;100886.19;;;10.50;87.74
80180;BME280;69505;52.134;5.438;2024-03-25T10:27:05;100882.63;;;10.38;89.00
80180;BME280;69505;52.134;5.438;2024-03-25T10:29:30;100881.16;;;10.34;88.94
80180;BME280;69505;52.134;5.438;2024-03-25T10:32:00;100872.66;;;10.29;88.76
80180;BME280;69505;52.134;5.438;2024-03-25T10:34:25;100868.91;;;10.44;87.58
80180;BME280;69505;52.134;5.438;2024-03-25T10:36:56;100864.94;;;10.50;87.90
80180;BME280;69505;52.134;5.438;2024-03-25T10:39:26;100874.56;;;10.15;82.32
80180;BME280;69505;52.134;5.438;2024-03-25T10:41:57;100864.53;;;10.43;87.90
80180;BME280;69505;52.134;5.438;2024-03-25T10:44:26;100860.00;;;10.56;86.92
80180;BME280;69505;52.134;5.438;2024-03-25T10:47:00;100857.19;;;10.58;84.63
80180;BME280;69505;52.134;5.438;2024-03-25T10:49:34;100843.81;;;10.60;86.40
80180;BME280;69505;52.134;5.438;2024-03-25T10:52:05;100856.47;;;10.45;87.12
80180;BME280;69505;52.134;5.438;2024-03-25T10:54:31;100852.97;;;10.44;87.65
80180;BME280;69505;52.134;5.438;2024-03-25T10:56:58;100846.50;;;10.71;87.40
80180;BME280;69505;52.134;5.438;2024-03-25T10:59:28;100834.53;;;10.76;84.28
80180;BME280;69505;52.134;5.438;2024-03-25T11:01:55;100829.94;;;10.67;80.67
80180;BME280;69505;52.134;5.438;2024-03-25T11:04:23;100836.47;;;10.74;82.13
80180;BME280;69505;52.134;5.438;2024-03-25T11:06:49;100835.00;;;10.59;84.13
80180;BME280;69505;52.134;5.438;2024-03-25T11:09:25;100831.72;;;10.55;82.21
80180;BME280;69505;52.134;5.438;2024-03-25T11:11:53;100832.81;;;10.64;83.83
80180;BME280;69505;52.134;5.438;2024-03-25T11:14:19;100833.09;;;10.95;83.72
80180;BME280;69505;52.134;5.438;2024-03-25T11:16:52;100838.28;;;11.08;82.55
80180;BME280;69505;52.134;5.438;2024-03-25T11:19:18;100828.63;;;11.07;81.64
80180;BME280;69505;52.134;5.438;2024-03-25T11:21:44;100827.44;;;11.11;83.78
80180;BME280;69505;52.134;5.438;2024-03-25T11:24:09;100817.53;;;11.13;82.00
80180;BME280;69505;52.134;5.438;2024-03-25T11:26:40;100811.69;;;11.19;80.64
80180;BME280;69505;52.134;5.438;2024-03-25T11:29:06;100814.34;;;11.19;76.65
80180;BME280;69505;52.134;5.438;2024-03-25T11:31:33;100811.59;;;11.09;80.17
80180;BME280;69505;52.134;5.438;2024-03-25T11:34:08;100800.47;;;11.15;80.78
80180;BME280;69505;52.134;5.438;2024-03-25T11:36:33;100806.66;;;11.05;80.18
80180;BME280;69505;52.134;5.438;2024-03-25T11:39:01;100814.63;;;11.05;79.71
80180;BME280;69505;52.134;5.438;2024-03-25T11:41:40;100818.72;;;11.09;78.97
80180;BME280;69505;52.134;5.438;2024-03-25T11:44:08;100799.75;;;11.02;70.86
80180;BME280;69505;52.134;5.438;2024-03-25T11:46:38;100798.53;;;10.72;75.44
80180;BME280;69505;52.134;5.438;2024-03-25T11:49:11;100794.69;;;10.76;75.52
80180;BME280;69505;52.134;5.438;2024-03-25T11:51:37;100790.22;;;10.88;75.33
80180;BME280;69505;52.134;5.438;2024-03-25T11:54:06;100781.53;;;11.09;77.61
80180;BME280;69505;52.134;5.438;2024-03-25T11:56:32;100778.34;;;11.26;76.39
80180;BME280;69505;52.134;5.438;2024-03-25T11:59:02;100772.97;;;11.37;78.89
80180;BME280;69505;52.134;5.438;2024-03-25T12:01:28;100780.50;;;11.21;75.33
80180;BME280;69505;52.134;5.438;2024-03-25T12:03:54;100773.06;;;11.15;77.07
80180;BME280;69505;52.134;5.438;2024-03-25T12:06:20;100769.16;;;11.30;76.37
80180;BME280;69505;52.134;5.438;2024-03-25T12:08:46;100759.13;;;11.34;75.62
80180;BME280;69505;52.134;5.438;2024-03-25T12:11:32;100763.38;;;11.14;75.37
80180;BME280;69505;52.134;5.438;2024-03-25T12:13:59;100753.72;;;11.02;75.43
80180;BME280;69505;52.134;5.438;2024-03-25T12:16:25;100755.03;;;11.18;75.83
80180;BME280;69505;52.134;5.438;2024-03-25T12:18:51;100749.75;;;11.51;75.86
80180;BME280;69505;52.134;5.438;2024-03-25T12:21:17;100739.59;;;11.77;73.45
80180;BME280;69505;52.134;5.438;2024-03-25T12:23:43;100748.13;;;11.92;74.20
80180;BME280;69505;52.134;5.438;2024-03-25T12:26:09;100741.50;;;12.07;71.68
80180;BME280;69505;52.134;5.438;2024-03-25T12:28:35;100731.53;;;12.30;71.21
80180;BME280;69505;52.134;5.438;2024-03-25T12:31:07;100727.28;;;12.39;71.53
80180;BME280;69505;52.134;5.438;2024-03-25T12:33:43;100724.91;;;12.46;70.27
80180;BME280;69505;52.134;5.438;2024-03-25T12:36:09;100719.75;;;12.54;71.01
80180;BME280;69505;52.134;5.438;2024-03-25T12:38:36;100721.38;;;12.66;67.61
80180;BME280;69505;52.134;5.438;2024-03-25T12:41:12;100721.41;;;12.95;66.12
80180;BME280;69505;52.134;5.438;2024-03-25T12:43:44;100721.91;;;13.20;65.82
80180;BME280;69505;52.134;5.438;2024-03-25T12:46:11;100718.00;;;13.44;62.64
80180;BME280;69505;52.134;5.438;2024-03-25T12:48:37;100712.13;;;13.50;64.99